Terminal Aerodrome Forecast
Issued by NWS Jackson, MS

Current Version | Previous Version | Text Only | Print | Product List | Glossary On
Versions: 1 2 3 4 5 6 7 8 9 10 11 12 13 14 15 16 17
000
FTUS44 KJAN 240702 AAB
TAFGLH
TAF AMD
KGLH 240702Z 2407/2506 25008KT P6SM -RA BKN015 OVC040
     FM241000 30010KT P6SM SCT020 BKN040 OVC060
     FM241200 30010KT P6SM SCT100
     FM241900 30012G17KT P6SM VCSH SCT050 BKN100
     FM242100 30015G21KT P6SM SCT250
     FM250000 31007KT P6SM SCT250=

USA.gov is the U.S. government's official web portal to all federal, state and local government web resources and services.